Flight Track Log - Related Links

Times and Time Zones

All times are in EDT time to prevent confusion due to time zone crossing. See the N983CA flight status page for this flight to view local times or setup timezone preferences in your user account.

Time Position Orientation Groundspeed Altitude Reporting Facility
EDT Latitude Longitude Course Direction KTS MPH feet Rate Location/Type
Fri 07:12:13 PM 35.0447 -106.5739 270° West 193 222 6,100  Level Albuquerque Center
Fri 07:13:20 PM 35.0686 -106.5028 68° East 232 267 8,900 2,000 Climbing Albuquerque Center
Fri 07:14:28 PM 35.1194 -106.5447 326° Northwest 243 280 10,600 1,800 Climbing Albuquerque Center
Fri 07:15:00 PM 35.1064 -107.0902 264° West  Level FlightAware
Fri 07:15:30 PM 35.1197 -106.6397 270° West 270 311 12,800  Level Albuquerque Center
Fri 07:16:00 PM 35.1000 -107.2196 270° West  Level FlightAware
Fri 07:16:32 PM 35.1186 -106.7375 269° West 287 330 14,700  Level Albuquerque Center
Fri 07:17:00 PM 35.1000 -107.3494 270° West  Level FlightAware
Fri 07:17:33 PM 35.1125 -106.8589 267° West 302 348 16,900  Level Albuquerque Center
Fri 07:18:35 PM 35.1061 -106.9631 266° West 315 362 18,400 1,597 Climbing Albuquerque Center
Fri 07:19:37 PM 35.1008 -107.0822 267° West 313 360 20,200 1,512 Climbing Albuquerque Center
Fri 07:20:38 PM 35.0950 -107.1875 266° West 323 372 21,500 1,122 Climbing Albuquerque Center
Fri 07:21:40 PM 35.0872 -107.2914 265° West 336 387 22,500 1,122 Climbing Albuquerque Center
Fri 07:22:41 PM 35.0792 -107.4267 266° West 335 386 23,800 1,171 Climbing Albuquerque Center
Fri 07:23:43 PM 35.0722 -107.5458 266° West 346 398 24,900 1,024 Climbing Albuquerque Center
Fri 07:24:44 PM 35.0647 -107.6650 266° West 351 404 25,900 878 Climbing Albuquerque Center
Fri 07:25:46 PM 35.0575 -107.7856 266° West 356 410 26,700 732 Climbing Albuquerque Center
Fri 07:26:47 PM 35.0511 -107.9047 266° West 359 413 27,400 780 Climbing Albuquerque Center
Fri 07:27:49 PM 35.0417 -108.0450 265° West 366 421 28,300 629 Climbing Albuquerque Center
Fri 07:28:51 PM 35.0333 -108.1667 265° West 373 429 28,700 488 Climbing Albuquerque Center
Fri 07:29:52 PM 35.0250 -108.3089 266° West 375 432 29,300 683 Climbing Albuquerque Center
Fri 07:30:54 PM 35.0175 -108.4353 266° West 383 441 30,100 878 Climbing Albuquerque Center
Fri 07:31:55 PM 35.0078 -108.5772 265° West 378 435 31,100 927 Climbing Albuquerque Center
Fri 07:32:57 PM 34.9997 -108.6978 265° West 374 430 32,000 435 Climbing Albuquerque Center
Fri 07:33:59 PM 34.9914 -108.8158 265° West 369 425 32,000  Level Albuquerque Center
Fri 07:35:00 PM 34.9817 -108.9608 265° West 377 434 32,000  Level Albuquerque Center
Fri 07:36:02 PM 34.9719 -109.0878 265° West 387 445 32,000  Level Albuquerque Center
Fri 07:37:04 PM 34.9622 -109.2364 265° West 392 451 32,000  Level Albuquerque Center
Fri 07:38:05 PM 34.9542 -109.3636 266° West 392 451 32,000  Level Albuquerque Center
Fri 07:39:07 PM 34.9447 -109.4900 265° West 391 450 32,000  Level Albuquerque Center
Fri 07:40:08 PM 34.9356 -109.6369 266° West 389 448 32,000  Level Albuquerque Center
Fri 07:41:10 PM 34.9261 -109.7631 265° West 389 448 32,000  Level Albuquerque Center
Fri 07:42:12 PM 34.9153 -109.9094 265° West 388 447 32,000  Level Albuquerque Center
Fri 07:43:13 PM 34.9072 -110.0353 266° West 389 448 32,000  Level Albuquerque Center
Fri 07:44:15 PM 34.8986 -110.1628 265° West 394 453 32,000  Level Albuquerque Center
Fri 07:45:17 PM 34.8897 -110.3119 266° West 393 452 32,000  Level Albuquerque Center
Fri 07:46:18 PM 34.8794 -110.4356 264° West 388 447 32,000  Level Albuquerque Center
Fri 07:47:20 PM 34.8669 -110.5800 264° West 386 444 32,000  Level Albuquerque Center
Fri 07:48:21 PM 34.8539 -110.7069 263° West 390 449 32,000  Level Albuquerque Center
Fri 07:49:23 PM 34.8336 -110.8447 260° West 393 452 32,000  Level Albuquerque Center
Fri 07:50:25 PM 34.8169 -110.9750 261° West 392 451 32,000  Level Albuquerque Center
Fri 07:51:26 PM 34.8014 -111.1061 262° West 395 455 32,000  Level Albuquerque Center
Fri 07:52:28 PM 34.7847 -111.2364 261° West 394 453 32,000  Level Albuquerque Center
Fri 07:53:30 PM 34.7681 -111.3658 261° West 390 449 32,000  Level Albuquerque Center
Fri 07:54:31 PM 34.7517 -111.4953 261° West 390 449 32,000  Level Albuquerque Center
Fri 07:55:33 PM 34.7297 -111.6542 261° West 397 457 32,000  Level Albuquerque Center
Fri 07:56:34 PM 34.7119 -111.7878 261° West 401 461 32,000  Level Albuquerque Center
Fri 07:57:36 PM 34.6936 -111.9200 260° West 401 461 32,000  Level Albuquerque Center
Fri 07:58:38 PM 34.6761 -112.0531 261° West 401 461 32,000  Level Albuquerque Center
Fri 07:59:39 PM 34.6581 -112.1858 261° West 402 463 32,000  Level Albuquerque Center
Fri 08:00:41 PM 34.6400 -112.3167 261° West 400 460 32,000  Level Albuquerque Center
Fri 08:01:43 PM 34.6225 -112.4461 261° West 393 452 32,000  Level Albuquerque Center
Fri 08:02:44 PM 34.6014 -112.6003 261° West 388 447 32,000  Level Albuquerque Center
Fri 08:03:46 PM 34.5839 -112.7283 261° West 387 445 32,000  Level Albuquerque Center
Fri 08:04:48 PM 34.5647 -112.8611 260° West 394 453 32,000  Level Albuquerque Center
Fri 08:05:49 PM 34.5453 -112.9942 260° West 400 460 32,000  Level Albuquerque Center
Fri 08:06:51 PM 34.5261 -113.1292 260° West 405 466 32,000  Level Albuquerque Center
Fri 08:07:53 PM 34.5064 -113.2647 260° West 408 470 32,000  Level Albuquerque Center
Fri 08:08:54 PM 34.4858 -113.3978 259° West 406 467 32,000  Level Albuquerque Center
Fri 08:09:56 PM 34.4614 -113.5592 260° West 406 467 32,000  Level Albuquerque Center
Fri 08:10:58 PM 34.4422 -113.6894 260° West 406 467 32,000  Level Albuquerque Center
Fri 08:11:59 PM 34.4225 -113.8222 260° West 402 463 32,000  Level Albuquerque Center
Fri 08:13:01 PM 34.4028 -113.9553 260° West 401 461 32,000  Level Albuquerque Center
Fri 08:14:03 PM 34.3808 -114.0892 259° West 404 465 32,000  Level Albuquerque Center
Fri 08:15:05 PM 34.3581 -114.2472 260° West 401 461 32,000  Level Albuquerque Center
Fri 08:16:06 PM 34.3372 -114.3797 259° West 400 460 32,000  Level Albuquerque Center
Fri 08:16:40 PM 34.3272 -114.4456 260° West 403 464 32,000  Level Los Center
Fri 08:17:42 PM 34.3078 -114.5792 260° West 403 464 32,000  Level Los Center
Fri 08:18:45 PM 34.2892 -114.7117 260° West 400 460 32,000  Level Los Center
Fri 08:19:47 PM 34.2692 -114.8736 262° West 406 467 32,000  Level Los Center
Fri 08:20:49 PM 34.2519 -115.0094 261° West 410 472 32,000  Level Los Center
Fri 08:21:51 PM 34.2342 -115.1447 261° West 409 471 32,000  Level Los Center
Fri 08:22:53 PM 34.2156 -115.2808 261° West 411 473 32,000  Level Los Center
Fri 08:23:55 PM 34.1975 -115.4153 261° West 409 471 32,000  Level Los Center
Fri 08:24:57 PM 34.1750 -115.5764 260° West 408 470 32,000  Level Los Center
Fri 08:25:59 PM 34.1564 -115.7114 261° West 410 472 32,000  Level Los Center
Fri 08:27:01 PM 34.1381 -115.8467 261° West 411 473 32,000  Level Los Center
Fri 08:28:03 PM 34.1197 -115.9833 261° West 413 475 32,000 -145 Level Los Center
Fri 08:29:05 PM 34.1000 -116.1192 260° West 413 475 31,700 -1,152 Descending Los Center
Fri 08:30:08 PM 34.0806 -116.2569 260° West 418 481 29,600 -2,160 Descending Los Center
Fri 08:31:10 PM 34.0569 -116.4194 260° West 414 476 27,200 -2,226 Descending Los Center
Fri 08:32:12 PM 34.0375 -116.5497 260° West 401 461 25,000 -2,177 Descending Los Center
Fri 08:33:14 PM 34.0192 -116.6783 260° West 393 452 22,700 -2,226 Descending Los Center
Fri 08:34:16 PM 34.0000 -116.8083 260° West 395 455 20,400 -2,283 Descending Los Center
Fri 08:34:46 PM 33.9833 -116.9000 258° West 381 438 19,200 -1,571 Descending Southern TRACON
Fri 08:35:40 PM 33.9667 -117.0000 259° West 328 377 18,200 -1,096 Descending Southern TRACON
Fri 08:36:41 PM 33.9500 -117.1000 259° West 304 350 17,100 -1,041 Descending Southern TRACON
Fri 08:37:41 PM 33.9500 -117.2000 270° West 303 349 16,100 -1,100 Descending Southern TRACON
Fri 08:38:41 PM 33.9333 -117.3000 259° West 301 346 14,900 -1,190 Descending Southern TRACON
Fri 08:39:47 PM 33.9333 -117.4000 270° West 289 333 13,600 -1,190 Descending Southern TRACON
Fri 08:40:42 PM 33.9667 -117.4833 296° West 280 322 12,500 -1,096 Descending Southern TRACON
Fri 08:41:42 PM 34.0000 -117.5667 296° West 275 316 11,500 -850 Descending Southern TRACON
Fri 08:42:42 PM 34.0000 -117.6667 270° West 300 345 10,800 -714 Descending Southern TRACON
Fri 08:43:48 PM 34.0000 -117.7667 270° West 279 321 10,000 -1,095 Descending Southern TRACON
Fri 08:44:48 PM 33.9833 -117.8667 259° West 287 330 8,500 -1,350 Descending Southern TRACON
Fri 08:45:48 PM 33.9833 -117.9500 270° West 282 325 7,300 -947 Descending Southern TRACON
Fri 08:46:42 PM 33.9667 -118.0333 256° West 252 290 6,700 -737 Descending Southern TRACON
Fri 08:47:42 PM 33.9667 -118.1000 270° West 207 238 5,900 -1,190 Descending Southern TRACON
Fri 08:48:48 PM 33.9667 -118.1667 270° West 185 213 4,200 -1,440 Descending Southern TRACON
Fri 08:49:47 PM 33.9539 -118.2261 255° West 186 214 2,900 -1,322 Descending Los Center

Login

Don't have an account? Register now (free) for customized features, flight alerts, and more!